METAR AND TAF INFORMATION
METAR FOR LOWI
ADDS - METARS form results

(1508 UTC 11 July 2020)
Data provider http://aviationweather.gov/metar/data/
 
METAR text: LOWI 111450Z VRB02KT 9999 -SHRA FEW010 SCT050 BKN065 17/14 Q1023 TEMPO SHRA
Conditions at: LOWI (INNSBRUCK AIRPOR, AT) observed 1450 UTC 11 July 2020
Temperature: 17.0°C (63°F)
Dewpoint: 14.0°C (57°F) [RH = 82%]
Pressure (altimeter): 30.21 inches Hg (1023.0 mb)
Winds: variable direction winds at 2 MPH (2 knots; 1.0 m/s)
Visibility: 6 or more miles (10+ km)
Ceiling: 6500 feet AGL
Clouds: few clouds at 1000 feet AGL
scattered clouds at 5000 feet AGL
broken clouds at 6500 feet AGL
Weather: -SHRA  (light rain showers)

METAR text: LOWI 111420Z 07006KT 050V120 9999 -SHRA FEW010 SCT042 BKN060 17/14 Q1022 NOSIG
Conditions at: LOWI (INNSBRUCK AIRPOR, AT) observed 1420 UTC 11 July 2020
Temperature: 17.0°C (63°F)
Dewpoint: 14.0°C (57°F) [RH = 82%]
Pressure (altimeter): 30.18 inches Hg (1022.0 mb)
Winds: from the ENE (70 degrees) at 7 MPH (6 knots; 3.1 m/s)
Visibility: 6 or more miles (10+ km)
Ceiling: 6000 feet AGL
Clouds: few clouds at 1000 feet AGL
scattered clouds at 4200 feet AGL
broken clouds at 6000 feet AGL
Weather: -SHRA  (light rain showers)

Forecast for: LOWI (INNSBRUCK AIRPOR, AT)
Text: TAF LOWI 111115Z 1112/1212 09005KT 9999 SCT030 BKN060 TX22/1212Z TN12/1204Z
Forecast period: 1200 UTC 11 July 2020 to 1200 UTC 12 July 2020
Forecast type: FROM: standard forecast or significant change
Winds: from the E (90 degrees) at 6 MPH (5 knots; 2.6 m/s)
Visibility: 6 or more miles 10+ km)
Ceiling: 6000 feet AGL
Clouds: scattered clouds at 3000 feet AGL
broken clouds at 6000 feet AGL
Weather: no significant weather forecast for this period
Text: TEMPO 1112/1115 SHRA
Forecast period: 1200 to 1500 UTC 11 July 2020
Forecast type: TEMPORARY: The following changes expected for less than half the time period
Visibility: missing
Ceiling: unknown
Clouds: missing
Weather: SHRA  (rain showers)

 AIRPORT MAP

 RUNWAY INFORMATION
Runway 08 Runway length 6562 ft Runway width 148 ft
Runway elevation 1906 ft Runway displaced threshold 339 ft Runway heading 81
Runway 26 Runway length 6562 ft Runway width 148 ft
Runway elevation 1893 ft Runway displaced threshold 198 ft Runway heading 261

 AIRPORT FREQUENCIES
Type APP Name APP Frequency 119.275 MHZ
Type ATIS Name ATIS Frequency 126.025 MHZ
Type GND Crew Name Frequency 121.8 MHZ
Type GND Crew Name Frequency 121.9 MHZ
Type TWR Name TWR Frequency 120.1 MHZ

 AIRPORT NEAR NAVIGATION AIDS
Type NDB Name Innsbruck Frequency 420 KHZ
Type NDB Name Kuhtai Frequency 413 KHZ



Powered by Virtual Airlines Manager [v2.6.2]

Impressum | Datenschutz